createdAt,value
2018-09-29T00:00:18.809Z,61.97
2018-09-29T00:02:49.895Z,61.40
2018-09-29T00:05:18.988Z,61.51
2018-09-29T00:07:51.337Z,60.63
2018-09-29T00:10:20.617Z,61.69
2018-09-29T00:12:51.523Z,61.54
2018-09-29T00:15:21.400Z,61.63
2018-09-29T00:17:52.154Z,61.41
2018-09-29T00:20:20.898Z,61.49
2018-09-29T00:22:51.904Z,60.48
2018-09-29T00:25:22.159Z,60.76
2018-09-29T00:27:51.709Z,61.04
2018-09-29T00:30:25.274Z,61.16
2018-09-29T00:32:55.552Z,60.56
2018-09-29T00:35:24.297Z,60.81
2018-09-29T00:37:53.701Z,60.25
2018-09-29T00:40:23.260Z,59.82
2018-09-29T00:42:52.464Z,60.25
2018-09-29T00:45:36.349Z,60.14
2018-09-29T00:48:06.917Z,60.21
2018-09-29T00:50:35.984Z,60.05
2018-09-29T00:53:05.625Z,60.52
2018-09-29T00:55:34.567Z,60.27
2018-09-29T00:58:06.250Z,60.58
2018-09-29T01:00:35.846Z,60.63
2018-09-29T01:03:05.199Z,60.70
2018-09-29T01:05:34.957Z,60.41
2018-09-29T01:08:04.930Z,60.43
2018-09-29T01:10:34.222Z,60.63
2018-09-29T01:13:05.681Z,60.37
2018-09-29T01:15:37.607Z,60.25
2018-09-29T01:18:06.692Z,59.77
2018-09-29T01:20:38.223Z,59.80
2018-09-29T01:23:06.736Z,59.45
2018-09-29T01:25:35.393Z,59.21
2018-09-29T01:28:05.321Z,59.38
2018-09-29T01:30:34.886Z,59.47
2018-09-29T01:33:03.599Z,59.64
2018-09-29T01:35:33.108Z,59.62
2018-09-29T01:38:03.473Z,59.13
2018-09-29T01:40:32.780Z,58.63
2018-09-29T01:43:03.232Z,58.63
2018-09-29T01:45:32.724Z,58.92
2018-09-29T01:48:02.800Z,58.71
2018-09-29T01:50:33.029Z,58.17
2018-09-29T01:53:03.547Z,58.44
2018-09-29T01:55:32.555Z,58.52
2018-09-29T01:58:02.305Z,58.37
2018-09-29T02:00:32.091Z,57.98
2018-09-29T02:03:07.141Z,58.11
2018-09-29T02:05:37.247Z,57.76
2018-09-29T02:08:07.292Z,57.11
2018-09-29T02:10:36.308Z,56.86
2018-09-29T02:13:05.908Z,57.02
2018-09-29T02:15:35.655Z,57.02
2018-09-29T02:18:05.479Z,57.28
2018-09-29T02:20:35.782Z,56.71
2018-09-29T02:23:06.848Z,56.72
2018-09-29T02:25:36.767Z,56.43
2018-09-29T02:28:07.260Z,56.51
2018-09-29T02:30:35.914Z,56.40
2018-09-29T02:33:04.501Z,56.74
2018-09-29T02:35:34.945Z,56.80
2018-09-29T02:38:04.231Z,57.79
2018-09-29T02:40:33.319Z,57.47
2018-09-29T02:43:02.435Z,57.60
2018-09-29T02:45:32.759Z,57.72
2018-09-29T02:48:02.549Z,57.80
2018-09-29T02:50:31.445Z,57.51
2018-09-29T02:53:01.743Z,57.99
2018-09-29T02:55:33.534Z,57.23
2018-09-29T02:58:02.280Z,57.46
2018-09-29T03:00:31.806Z,57.26
2018-09-29T03:03:01.723Z,57.96
2018-09-29T03:05:33.171Z,57.80
2018-09-29T03:08:05.161Z,57.31
2018-09-29T03:10:33.781Z,57.14
2018-09-29T03:13:04.814Z,57.00
2018-09-29T03:15:34.085Z,57.66
2018-09-29T03:18:03.134Z,57.25
2018-09-29T03:20:31.636Z,57.46
2018-09-29T03:23:00.695Z,57.13
2018-09-29T03:25:35.122Z,56.89
2018-09-29T03:28:04.459Z,57.56
2018-09-29T03:30:33.773Z,57.14
2018-09-29T03:33:02.495Z,57.15
2018-09-29T03:35:30.991Z,56.85
2018-09-29T03:38:00.470Z,57.08
2018-09-29T03:40:31.063Z,56.92
2018-09-29T03:43:00.469Z,57.36
2018-09-29T03:45:30.112Z,58.41
2018-09-29T03:47:58.871Z,59.46
2018-09-29T03:50:28.167Z,60.00
2018-09-29T03:52:56.956Z,61.17
2018-09-29T03:55:26.092Z,61.13
2018-09-29T03:57:54.983Z,62.01
2018-09-29T04:00:23.928Z,63.17
2018-09-29T04:02:56.772Z,63.58
2018-09-29T04:05:25.324Z,63.50
2018-09-29T04:07:57.650Z,64.33
2018-09-29T04:10:26.402Z,64.48
2018-09-29T04:12:55.443Z,64.47
2018-09-29T04:15:24.906Z,65.25
2018-09-29T04:17:53.960Z,65.37
2018-09-29T04:20:24.445Z,64.56
2018-09-29T04:22:54.033Z,64.60
2018-09-29T04:25:23.658Z,64.44
2018-09-29T04:27:54.591Z,63.98
2018-09-29T04:30:24.715Z,64.12
2018-09-29T04:32:57.220Z,63.79
2018-09-29T04:35:26.268Z,64.37
2018-09-29T04:37:55.816Z,63.75
2018-09-29T04:40:24.387Z,64.99
2018-09-29T04:42:56.977Z,63.96
2018-09-29T04:45:26.159Z,64.79
2018-09-29T04:47:55.648Z,64.77
2018-09-29T04:50:24.411Z,64.52
2018-09-29T04:52:53.201Z,65.29
2018-09-29T04:55:23.229Z,65.69
2018-09-29T04:57:53.954Z,65.39
2018-09-29T05:00:25.936Z,66.12
2018-09-29T05:02:55.023Z,66.49
2018-09-29T05:05:24.704Z,66.82
2018-09-29T05:07:54.066Z,66.95
2018-09-29T05:10:23.152Z,67.03
2018-09-29T05:12:52.892Z,68.08
2018-09-29T05:15:23.871Z,67.98
2018-09-29T05:17:54.806Z,67.92
2018-09-29T05:20:24.416Z,68.18
2018-09-29T05:22:52.888Z,67.62
2018-09-29T05:25:25.414Z,67.51
2018-09-29T05:27:56.643Z,67.31
2018-09-29T05:30:26.599Z,67.90
2018-09-29T05:32:55.240Z,68.08
2018-09-29T05:35:25.432Z,68.05
2018-09-29T05:37:55.882Z,67.64
2018-09-29T05:40:24.909Z,67.47
2018-09-29T05:42:54.367Z,66.99
2018-09-29T05:45:24.017Z,67.00
2018-09-29T05:47:53.011Z,66.14
2018-09-29T05:50:21.773Z,66.21
2018-09-29T05:52:50.243Z,64.83
2018-09-29T05:55:19.703Z,65.59
2018-09-29T05:57:48.939Z,64.84
2018-09-29T06:00:19.944Z,64.67
2018-09-29T06:02:54.625Z,63.46
2018-09-29T06:05:28.341Z,63.06
2018-09-29T06:07:57.913Z,63.23
2018-09-29T06:10:28.012Z,63.00
2018-09-29T06:12:57.160Z,62.89
2018-09-29T06:15:26.387Z,62.08
2018-09-29T06:17:55.818Z,61.83
2018-09-29T06:20:24.332Z,61.00
2018-09-29T06:22:55.627Z,61.02
2018-09-29T06:25:27.475Z,59.72
2018-09-29T06:27:56.620Z,59.63
2018-09-29T06:30:26.179Z,60.15
2018-09-29T06:32:57.380Z,58.52
2018-09-29T06:35:28.731Z,57.67
2018-09-29T06:37:59.328Z,58.49
2018-09-29T06:40:28.848Z,59.15
2018-09-29T06:42:58.968Z,58.90
2018-09-29T06:45:28.072Z,59.85
2018-09-29T06:47:59.628Z,60.65
2018-09-29T06:50:30.003Z,60.55
2018-09-29T06:53:00.236Z,60.47
2018-09-29T06:55:31.727Z,60.66
2018-09-29T06:58:01.251Z,61.27
2018-09-29T07:00:32.926Z,60.62
2018-09-29T07:03:02.894Z,61.16
2018-09-29T07:05:32.428Z,60.84
2018-09-29T07:08:03.008Z,60.74
2018-09-29T07:10:32.067Z,60.62
2018-09-29T07:13:00.849Z,60.86
2018-09-29T07:15:30.721Z,60.02
2018-09-29T07:17:59.777Z,60.63
2018-09-29T07:20:28.763Z,60.41
2018-09-29T07:22:58.089Z,60.89
2018-09-29T07:25:27.907Z,60.86
2018-09-29T07:27:58.072Z,60.94
2018-09-29T07:30:27.573Z,61.68
2018-09-29T07:32:56.095Z,60.19
2018-09-29T07:35:27.791Z,60.42
2018-09-29T07:37:57.873Z,60.42
2018-09-29T07:40:27.277Z,60.06
2018-09-29T07:42:55.866Z,60.34
2018-09-29T07:45:25.419Z,59.66
2018-09-29T07:47:57.474Z,58.72
2018-09-29T07:50:27.010Z,58.06
2018-09-29T07:52:56.821Z,57.24
2018-09-29T07:55:26.198Z,56.79
2018-09-29T07:57:54.724Z,56.12
2018-09-29T08:00:24.380Z,55.73
2018-09-29T08:02:53.547Z,56.05
2018-09-29T08:05:22.721Z,56.08
2018-09-29T08:07:52.151Z,56.03
2018-09-29T08:10:22.132Z,54.82
2018-09-29T08:12:52.537Z,54.36
2018-09-29T08:15:21.290Z,53.26
2018-09-29T08:17:50.128Z,51.55
2018-09-29T08:20:18.831Z,51.62
2018-09-29T08:22:48.269Z,51.09
2018-09-29T08:25:18.332Z,51.03
2018-09-29T08:27:47.963Z,50.73
2018-09-29T08:30:47.389Z,51.11
2018-09-29T08:33:18.528Z,50.26
2018-09-29T08:35:47.837Z,49.15
2018-09-29T08:38:16.833Z,49.09
2018-09-29T08:40:54.433Z,49.16
2018-09-29T08:43:25.774Z,48.71
2018-09-29T08:46:02.055Z,49.13
2018-09-29T08:48:31.475Z,49.46
2018-09-29T08:51:01.171Z,49.10
2018-09-29T08:53:30.776Z,47.97
2018-09-29T08:55:59.712Z,48.32
2018-09-29T08:58:29.641Z,46.98
2018-09-29T09:00:58.152Z,47.92
2018-09-29T09:03:26.808Z,47.02
2018-09-29T09:05:55.864Z,47.16
2018-09-29T09:08:24.399Z,46.82
2018-09-29T09:10:54.472Z,45.57
2018-09-29T09:13:24.125Z,46.40
2018-09-29T09:15:53.772Z,46.07
2018-09-29T09:18:22.619Z,46.20
2018-09-29T09:20:51.473Z,46.32
2018-09-29T09:23:21.266Z,45.54
2018-09-29T09:25:50.979Z,46.05
2018-09-29T09:28:20.504Z,45.70
2018-09-29T09:30:50.445Z,44.63
2018-09-29T09:33:20.638Z,44.89
2018-09-29T09:35:52.568Z,44.64
2018-09-29T09:38:22.716Z,44.98
2018-09-29T09:40:52.523Z,44.48
2018-09-29T09:43:22.405Z,44.52
2018-09-29T09:45:51.815Z,44.65
2018-09-29T09:48:20.589Z,45.27
2018-09-29T09:50:50.643Z,44.27
2018-09-29T09:53:20.996Z,43.77
2018-09-29T09:55:49.554Z,43.51
2018-09-29T09:58:18.653Z,44.41
2018-09-29T10:00:54.255Z,43.86
2018-09-29T10:03:30.268Z,43.50
2018-09-29T10:05:58.739Z,43.40
2018-09-29T10:08:28.418Z,43.91
2018-09-29T10:10:57.838Z,43.47
2018-09-29T10:13:26.734Z,43.52
2018-09-29T10:15:55.957Z,42.43
2018-09-29T10:18:24.701Z,42.93
2018-09-29T10:20:53.751Z,43.39
2018-09-29T10:23:22.723Z,42.49
2018-09-29T10:25:52.685Z,42.33
2018-09-29T10:28:22.819Z,42.37
2018-09-29T10:30:51.944Z,42.08
2018-09-29T10:33:20.706Z,41.97
2018-09-29T10:35:51.038Z,42.36
2018-09-29T10:38:20.851Z,42.68
2018-09-29T10:40:50.180Z,42.79
2018-09-29T10:43:18.684Z,42.42
2018-09-29T10:45:51.224Z,41.85
2018-09-29T10:48:22.616Z,41.62
2018-09-29T10:50:52.915Z,42.38
2018-09-29T10:53:27.085Z,42.11
2018-09-29T10:55:57.080Z,41.40
2018-09-29T10:58:26.647Z,42.47
2018-09-29T11:00:56.747Z,41.99
2018-09-29T11:03:25.722Z,42.41
2018-09-29T11:05:55.225Z,40.71
2018-09-29T11:08:25.564Z,40.89
2018-09-29T11:10:57.303Z,41.34
2018-09-29T11:13:28.028Z,41.44
2018-09-29T11:15:57.069Z,41.52
2018-09-29T11:18:26.711Z,40.79
2018-09-29T11:20:56.124Z,40.44
2018-09-29T11:23:25.630Z,41.60
2018-09-29T11:25:56.480Z,41.87
2018-09-29T11:28:26.765Z,42.38
2018-09-29T11:30:58.856Z,42.50
2018-09-29T11:33:28.913Z,42.46
2018-09-29T11:35:57.495Z,41.96
2018-09-29T11:38:26.557Z,41.41
2018-09-29T11:40:56.313Z,41.21
2018-09-29T11:43:25.632Z,41.93
2018-09-29T11:45:54.447Z,41.88
2018-09-29T11:48:24.240Z,41.32
2018-09-29T11:51:25.350Z,41.35
2018-09-29T11:53:59.741Z,40.87
2018-09-29T11:56:33.032Z,41.00
2018-09-29T11:59:02.492Z,40.67
2018-09-29T12:01:31.819Z,40.17
2018-09-29T12:04:00.544Z,40.29
2018-09-29T12:06:30.432Z,41.76
2018-09-29T12:08:58.985Z,40.72
2018-09-29T12:11:28.312Z,40.58
2018-09-29T12:13:57.083Z,39.26
2018-09-29T12:16:27.519Z,39.48
2018-09-29T12:18:57.192Z,40.55
2018-09-29T12:21:27.038Z,40.75
2018-09-29T12:23:59.616Z,39.81
2018-09-29T12:26:30.149Z,39.76
2018-09-29T12:29:01.182Z,39.11
2018-09-29T12:31:31.467Z,39.71
2018-09-29T12:34:03.516Z,38.95
2018-09-29T12:36:33.625Z,39.68
2018-09-29T12:39:04.606Z,39.62
2018-09-29T12:41:34.132Z,38.16
2018-09-29T12:44:03.169Z,38.12
2018-09-29T12:46:32.943Z,38.14
2018-09-29T12:49:02.162Z,36.69
2018-09-29T12:51:30.983Z,36.88
2018-09-29T12:54:01.278Z,36.68
2018-09-29T12:56:31.508Z,37.04
2018-09-29T12:59:01.184Z,38.06
2018-09-29T13:01:30.904Z,37.02
2018-09-29T13:04:07.081Z,37.81
2018-09-29T13:06:35.761Z,37.34
2018-09-29T13:09:07.171Z,36.74
2018-09-29T13:11:38.356Z,37.04
2018-09-29T13:14:07.602Z,36.37
2018-09-29T13:16:38.588Z,37.27
2018-09-29T13:19:07.498Z,37.84
2018-09-29T13:21:37.728Z,36.46
2018-09-29T13:24:07.771Z,37.17
2018-09-29T13:26:37.178Z,35.86
2018-09-29T13:29:06.290Z,36.56
2018-09-29T13:31:35.267Z,36.64
2018-09-29T13:34:04.304Z,36.83
2018-09-29T13:36:32.847Z,36.58
2018-09-29T13:39:03.463Z,35.76
2018-09-29T13:41:33.912Z,34.19
2018-09-29T13:44:05.245Z,35.31
2018-09-29T13:46:35.305Z,34.86
2018-09-29T13:49:07.443Z,34.90
2018-09-29T13:51:38.940Z,34.62
2018-09-29T13:54:08.793Z,35.68
2018-09-29T13:56:37.380Z,36.24
2018-09-29T13:59:06.924Z,35.71
2018-09-29T14:01:35.700Z,34.74
2018-09-29T14:04:05.117Z,35.42
2018-09-29T14:06:35.536Z,35.12
2018-09-29T14:09:07.584Z,34.47
2018-09-29T14:11:38.270Z,35.19
2018-09-29T14:14:08.017Z,34.60
2018-09-29T14:16:37.911Z,35.00
2018-09-29T14:19:07.168Z,35.33
2018-09-29T14:21:37.545Z,35.44
2018-09-29T14:24:08.268Z,34.45
2018-09-29T14:26:41.792Z,33.83
2018-09-29T14:29:11.600Z,33.45
2018-09-29T14:31:41.376Z,34.88
2018-09-29T14:34:18.131Z,34.59
2018-09-29T14:36:53.554Z,34.21
2018-09-29T14:39:23.385Z,33.71
2018-09-29T14:41:52.605Z,34.18
2018-09-29T14:44:21.675Z,34.80
2018-09-29T14:46:51.600Z,34.77
2018-09-29T14:49:22.813Z,34.28
2018-09-29T14:51:52.161Z,33.46
2018-09-29T14:54:20.649Z,34.06
2018-09-29T14:56:50.931Z,33.22
2018-09-29T14:59:24.377Z,34.18
2018-09-29T15:01:53.516Z,34.71
2018-09-29T15:04:23.519Z,34.52
2018-09-29T15:06:53.009Z,35.12
2018-09-29T15:09:22.288Z,34.94
2018-09-29T15:11:54.622Z,35.58
2018-09-29T15:14:23.808Z,35.17
2018-09-29T15:16:56.218Z,34.53
2018-09-29T15:19:27.485Z,35.32
2018-09-29T15:21:58.021Z,35.23
2018-09-29T15:24:27.951Z,34.94
2018-09-29T15:26:57.644Z,35.34
2018-09-29T15:29:26.764Z,35.20
2018-09-29T15:31:57.172Z,35.33
2018-09-29T15:34:25.924Z,35.15
2018-09-29T15:36:55.905Z,35.89
2018-09-29T15:39:25.279Z,36.35
2018-09-29T15:41:54.049Z,35.34
2018-09-29T15:44:23.628Z,35.29
2018-09-29T15:46:53.098Z,34.93
2018-09-29T15:49:22.761Z,35.25
2018-09-29T15:51:51.310Z,34.30
2018-09-29T15:54:20.318Z,34.99
2018-09-29T15:56:49.385Z,35.08
2018-09-29T15:59:18.509Z,35.81
2018-09-29T16:01:49.448Z,35.65
2018-09-29T16:04:18.963Z,35.40
2018-09-29T16:06:48.525Z,35.13
2018-09-29T16:09:19.501Z,35.48
2018-09-29T16:11:49.764Z,35.60
2018-09-29T16:14:19.316Z,35.67
2018-09-29T16:16:48.862Z,35.55
2018-09-29T16:19:20.221Z,35.99
2018-09-29T16:21:50.990Z,36.10
2018-09-29T16:24:20.037Z,36.17
2018-09-29T16:26:48.872Z,36.25
2018-09-29T16:29:20.259Z,36.49
2018-09-29T16:31:49.003Z,37.40
2018-09-29T16:34:19.215Z,37.23
2018-09-29T16:36:51.415Z,37.73
2018-09-29T16:39:21.430Z,38.05
2018-09-29T16:41:51.805Z,37.96
2018-09-29T16:44:21.079Z,38.04
2018-09-29T16:46:49.578Z,38.28
2018-09-29T16:49:19.660Z,38.54
2018-09-29T16:51:48.680Z,37.66
2018-09-29T16:54:18.717Z,38.36
2018-09-29T16:56:49.245Z,38.27
2018-09-29T16:59:19.688Z,38.49
2018-09-29T17:01:48.987Z,38.77
2018-09-29T17:04:19.925Z,38.56
2018-09-29T17:06:50.843Z,38.76
2018-09-29T17:09:20.187Z,39.12
2018-09-29T17:11:49.477Z,39.53
2018-09-29T17:14:19.095Z,39.89
2018-09-29T17:16:48.343Z,39.77
2018-09-29T17:19:19.348Z,39.72
2018-09-29T17:21:49.731Z,39.88
2018-09-29T17:24:19.507Z,39.59
2018-09-29T17:26:48.834Z,40.08
2018-09-29T17:29:17.332Z,39.93
2018-09-29T17:31:47.019Z,39.24
2018-09-29T17:36:54.509Z,39.31
2018-09-29T17:39:26.564Z,39.43
2018-09-29T17:41:56.670Z,40.29
2018-09-29T17:44:28.876Z,40.85
2018-09-29T17:46:57.385Z,40.68
2018-09-29T17:49:27.600Z,41.47
2018-09-29T17:51:56.534Z,41.21
2018-09-29T17:54:25.155Z,41.62
2018-09-29T17:56:54.551Z,41.02
2018-09-29T17:59:23.044Z,41.17
2018-09-29T18:01:52.707Z,41.21
2018-09-29T18:04:22.853Z,40.95
2018-09-29T18:06:52.498Z,42.06
2018-09-29T18:09:21.854Z,42.03
2018-09-29T18:11:52.417Z,41.46
2018-09-29T18:14:23.507Z,42.02
2018-09-29T18:16:56.006Z,41.47
2018-09-29T18:19:25.664Z,41.70
2018-09-29T18:21:55.154Z,41.72
2018-09-29T18:24:25.301Z,41.28
2018-09-29T18:27:09.038Z,41.20
2018-09-29T18:29:40.979Z,41.23
2018-09-29T18:32:12.443Z,41.29
2018-09-29T18:34:42.365Z,41.44
2018-09-29T18:37:11.975Z,41.64
2018-09-29T18:39:43.057Z,42.26
2018-09-29T18:42:15.226Z,42.32
2018-09-29T18:44:46.270Z,43.16
2018-09-29T18:47:15.844Z,43.03
2018-09-29T18:49:45.639Z,42.78
2018-09-29T18:52:15.439Z,42.66
2018-09-29T18:54:45.148Z,42.49
2018-09-29T18:57:14.559Z,43.35
2018-09-29T18:59:47.042Z,42.83
2018-09-29T19:02:15.812Z,43.00
2018-09-29T19:04:46.014Z,42.26
2018-09-29T19:07:17.995Z,43.00
2018-09-29T19:09:47.944Z,43.00
2018-09-29T19:12:17.904Z,42.77
2018-09-29T19:14:47.680Z,43.89
2018-09-29T19:17:16.892Z,44.33
2018-09-29T19:19:46.709Z,44.27
2018-09-29T19:22:17.280Z,43.57
2018-09-29T19:24:46.267Z,43.32
2018-09-29T19:27:16.631Z,44.26
2018-09-29T19:29:46.336Z,44.47
2018-09-29T19:32:14.886Z,44.51
2018-09-29T19:34:44.416Z,44.28
2018-09-29T19:37:27.225Z,45.72
2018-09-29T19:39:56.520Z,46.29
2018-09-29T19:42:25.467Z,46.88
2018-09-29T19:44:54.231Z,46.38
2018-09-29T19:47:24.607Z,46.26
2018-09-29T19:49:54.908Z,46.18
2018-09-29T19:52:23.969Z,46.89
2018-09-29T19:54:54.880Z,46.41
2018-09-29T19:57:25.490Z,46.64
2018-09-29T19:59:55.939Z,46.89
2018-09-29T20:02:25.777Z,47.31
2018-09-29T20:04:54.320Z,50.65
2018-09-29T20:07:24.261Z,48.34
2018-09-29T20:09:54.348Z,47.55
2018-09-29T20:12:24.505Z,47.76
2018-09-29T20:14:53.319Z,47.30
2018-09-29T20:17:23.555Z,46.87
2018-09-29T20:19:53.407Z,48.50
2018-09-29T20:22:24.019Z,47.85
2018-09-29T20:24:56.169Z,46.93
2018-09-29T20:27:26.743Z,46.77
2018-09-29T20:29:59.635Z,49.55
2018-09-29T20:32:28.351Z,48.56
2018-09-29T20:34:57.990Z,48.82
2018-09-29T20:37:26.836Z,47.69
2018-09-29T20:39:56.157Z,47.88
2018-09-29T20:42:26.298Z,47.25
2018-09-29T20:44:57.817Z,46.73
2018-09-29T20:47:28.079Z,46.78
2018-09-29T20:50:02.169Z,45.91
2018-09-29T20:52:30.720Z,47.25
2018-09-29T20:55:00.408Z,46.09
2018-09-29T20:57:29.827Z,46.53
2018-09-29T21:00:00.379Z,46.81
2018-09-29T21:02:30.760Z,47.57
2018-09-29T21:05:00.278Z,47.68
2018-09-29T21:07:33.108Z,47.71
2018-09-29T21:10:02.133Z,47.85
2018-09-29T21:12:33.754Z,46.98
2018-09-29T21:15:03.708Z,47.83
2018-09-29T21:17:33.009Z,47.58
2018-09-29T21:20:02.952Z,48.54
2018-09-29T21:22:32.435Z,48.92
2018-09-29T21:25:01.203Z,48.85
2018-09-29T21:27:30.200Z,49.45
2018-09-29T21:29:59.079Z,50.59
2018-09-29T21:32:29.141Z,51.71
2018-09-29T21:35:00.139Z,50.13
2018-09-29T21:37:29.521Z,49.15
2018-09-29T21:39:59.844Z,51.34
2018-09-29T21:42:30.132Z,51.77
2018-09-29T21:45:00.079Z,49.93
2018-09-29T21:47:30.005Z,50.41
2018-09-29T21:49:59.095Z,49.60
2018-09-29T21:52:27.953Z,49.20
2018-09-29T21:54:57.035Z,48.26
2018-09-29T21:57:27.535Z,49.39
2018-09-29T21:59:56.935Z,49.31
2018-09-29T22:02:28.829Z,49.32
2018-09-29T22:04:58.908Z,51.56
2018-09-29T22:07:29.005Z,50.05
2018-09-29T22:09:57.629Z,49.43
2018-09-29T22:12:27.535Z,48.75
2018-09-29T22:15:00.527Z,49.89
2018-09-29T22:17:30.311Z,50.20
2018-09-29T22:20:00.323Z,49.46
2018-09-29T22:22:29.849Z,50.65
2018-09-29T22:24:58.505Z,50.15
2018-09-29T22:27:30.065Z,50.15
2018-09-29T22:30:00.111Z,49.69
2018-09-29T22:32:30.129Z,49.40
2018-09-29T22:35:01.688Z,50.78
2018-09-29T22:37:32.691Z,49.77
2018-09-29T22:40:02.939Z,50.63
2018-09-29T22:42:34.372Z,51.75
2018-09-29T22:45:03.215Z,51.92
2018-09-29T22:47:33.442Z,50.86
2018-09-29T22:50:02.483Z,52.08
2018-09-29T22:52:32.012Z,52.69
2018-09-29T22:55:01.752Z,52.37
2018-09-29T22:57:33.275Z,51.41
2018-09-29T23:00:04.314Z,51.88
2018-09-29T23:02:33.905Z,51.10
2018-09-29T23:05:02.954Z,51.99
2018-09-29T23:07:33.442Z,51.53
2018-09-29T23:10:02.370Z,52.41
2018-09-29T23:12:31.343Z,51.85
2018-09-29T23:15:00.096Z,52.07
2018-09-29T23:17:28.854Z,52.37
2018-09-29T23:19:58.638Z,54.81
2018-09-29T23:22:27.839Z,53.99
2018-09-29T23:24:57.392Z,54.35
2018-09-29T23:27:25.890Z,54.04
2018-09-29T23:29:55.914Z,55.67
2018-09-29T23:32:26.271Z,53.76
2018-09-29T23:34:56.065Z,52.63
2018-09-29T23:37:26.664Z,54.17
2018-09-29T23:39:55.432Z,54.87
2018-09-29T23:42:24.725Z,53.82
2018-09-29T23:44:53.588Z,54.55
2018-09-29T23:47:24.395Z,55.25
2018-09-29T23:49:53.700Z,54.74
2018-09-29T23:52:22.706Z,55.65
2018-09-29T23:54:53.580Z,55.22
2018-09-29T23:57:23.857Z,54.06
2018-09-29T23:59:52.667Z,53.88
